createdAt,value
2019-01-12T00:00:33.906Z,0
2019-01-12T00:01:14.563Z,0
2019-01-12T00:01:55.152Z,0
2019-01-12T00:02:37.030Z,0
2019-01-12T00:03:20.068Z,0
2019-01-12T00:04:03.461Z,0
2019-01-12T00:04:46.080Z,0
2019-01-12T00:05:30.830Z,0
2019-01-12T00:06:11.516Z,0
2019-01-12T00:06:59.634Z,0
2019-01-12T00:07:52.358Z,0
2019-01-12T00:08:32.820Z,0
2019-01-12T00:09:14.132Z,0
2019-01-12T00:09:55.261Z,0
2019-01-12T00:10:35.275Z,0
2019-01-12T00:11:17.485Z,0
2019-01-12T00:11:58.360Z,0
2019-01-12T00:12:38.712Z,0
2019-01-12T00:13:20.071Z,0
2019-01-12T00:14:03.294Z,0
2019-01-12T00:14:43.840Z,0
2019-01-12T00:15:25.188Z,0
2019-01-12T00:16:05.633Z,0
2019-01-12T00:16:47.735Z,0
2019-01-12T00:17:30.022Z,0
2019-01-12T00:18:12.028Z,0
2019-01-12T00:18:53.581Z,0
2019-01-12T00:19:35.841Z,0
2019-01-12T00:20:18.062Z,0
2019-01-12T00:20:58.613Z,0
2019-01-12T00:21:39.869Z,0
2019-01-12T00:22:20.332Z,0
2019-01-12T00:23:00.705Z,0
2019-01-12T00:23:43.471Z,0
2019-01-12T00:24:31.602Z,0
2019-01-12T00:25:13.283Z,0
2019-01-12T00:25:53.787Z,0
2019-01-12T00:26:34.194Z,0
2019-01-12T00:27:14.435Z,0
2019-01-12T00:28:05.370Z,0
2019-01-12T00:28:49.807Z,0
2019-01-12T00:29:33.198Z,0
2019-01-12T00:30:15.848Z,0
2019-01-12T00:30:57.961Z,0
2019-01-12T00:31:38.352Z,0
2019-01-12T00:32:37.853Z,0
2019-01-12T00:33:20.145Z,0
2019-01-12T00:34:01.386Z,0
2019-01-12T00:34:44.716Z,0
2019-01-12T00:35:24.239Z,0
2019-01-12T00:42:43.056Z,0
2019-01-12T00:43:24.008Z,0
2019-01-12T00:44:08.544Z,0
2019-01-12T00:44:49.962Z,0
2019-01-12T00:45:30.435Z,0
2019-01-12T00:46:11.494Z,0
2019-01-12T00:46:51.669Z,0
2019-01-12T00:47:33.972Z,0
2019-01-12T00:48:15.379Z,0
2019-01-12T00:48:55.696Z,0
2019-01-12T00:49:37.057Z,0
2019-01-12T00:50:18.937Z,0
2019-01-12T00:50:59.215Z,0
2019-01-12T00:51:40.003Z,0
2019-01-12T00:52:21.278Z,0
2019-01-12T00:53:03.765Z,0
2019-01-12T00:53:53.232Z,0
2019-01-12T00:54:54.005Z,0
2019-01-12T00:55:36.544Z,0
2019-01-12T00:56:16.983Z,0
2019-01-12T00:56:59.278Z,0
2019-01-12T00:57:41.601Z,0
2019-01-12T00:58:22.998Z,0
2019-01-12T00:59:03.474Z,0
2019-01-12T00:59:47.748Z,0
2019-01-12T01:00:30.654Z,0
2019-01-12T01:01:13.035Z,0
2019-01-12T01:01:57.061Z,0
2019-01-12T01:02:38.946Z,0
2019-01-12T01:03:22.503Z,0
2019-01-12T01:04:02.655Z,0
2019-01-12T01:04:46.836Z,0
2019-01-12T01:05:27.649Z,0
2019-01-12T01:06:09.965Z,0
2019-01-12T01:06:50.438Z,0
2019-01-12T01:07:30.881Z,0
2019-01-12T01:08:12.475Z,0
2019-01-12T01:08:52.785Z,0
2019-01-12T01:09:37.452Z,0
2019-01-12T01:46:45.432Z,0
2019-01-12T01:47:30.919Z,0
2019-01-12T01:48:11.451Z,0
2019-01-12T01:48:54.742Z,0
2019-01-12T01:49:35.151Z,0
2019-01-12T01:50:15.616Z,0
2019-01-12T01:50:56.237Z,0
2019-01-12T01:51:53.881Z,0
2019-01-12T01:52:34.458Z,0
2019-01-12T01:53:16.599Z,0
2019-01-12T01:53:57.220Z,0
2019-01-12T01:54:37.576Z,0
2019-01-12T01:55:21.369Z,0
2019-01-12T01:56:02.687Z,0
2019-01-12T01:56:43.714Z,0
2019-01-12T01:57:25.633Z,0
2019-01-12T01:58:09.558Z,0
2019-01-12T01:58:49.905Z,0
2019-01-12T01:59:30.332Z,0
2019-01-12T02:00:19.705Z,0
2019-01-12T02:01:00.274Z,0
2019-01-12T02:01:51.751Z,0
2019-01-12T02:02:35.091Z,0
2019-01-12T02:03:15.350Z,0
2019-01-12T02:03:57.714Z,0
2019-01-12T02:04:38.494Z,0
2019-01-12T02:05:24.108Z,0
2019-01-12T02:06:23.839Z,0
2019-01-12T04:00:01.533Z,0
2019-01-12T05:14:57.969Z,0
2019-01-12T05:22:29.210Z,0
2019-01-12T05:23:21.569Z,0
2019-01-12T05:24:25.797Z,0
2019-01-12T05:25:25.976Z,0
2019-01-12T05:26:21.944Z,0
2019-01-12T05:27:40.466Z,0
2019-01-12T05:28:37.040Z,0
2019-01-12T05:29:44.185Z,0
2019-01-12T05:43:06.899Z,0
2019-01-12T05:47:16.322Z,0
2019-01-12T05:48:08.508Z,0
2019-01-12T05:49:07.345Z,0
2019-01-12T05:50:02.649Z,0
2019-01-12T05:55:32.590Z,0
2019-01-12T05:56:25.830Z,0
2019-01-12T05:57:19.200Z,0
2019-01-12T05:58:15.880Z,0
2019-01-12T06:45:03.369Z,0
2019-01-12T06:54:54.396Z,0
2019-01-12T06:55:49.421Z,0
2019-01-12T06:56:46.554Z,0
2019-01-12T06:59:41.355Z,0
2019-01-12T07:00:36.083Z,0
2019-01-12T07:01:32.438Z,0
2019-01-12T07:16:01.838Z,0
2019-01-12T07:17:04.845Z,0
2019-01-12T07:17:59.242Z,0
2019-01-12T07:29:24.119Z,4
2019-01-12T07:30:21.597Z,4
2019-01-12T07:31:27.162Z,4
2019-01-12T07:35:00.302Z,8
2019-01-12T07:35:39.113Z,8
2019-01-12T07:36:19.622Z,4
2019-01-12T07:37:00.356Z,4
2019-01-12T07:37:41.120Z,4
2019-01-12T07:38:21.720Z,4
2019-01-12T07:39:03.334Z,8
2019-01-12T07:39:44.729Z,8
2019-01-12T07:40:25.212Z,8
2019-01-12T07:41:05.592Z,8
2019-01-12T07:41:46.046Z,4
2019-01-12T07:42:26.417Z,8
2019-01-12T07:43:06.822Z,8
2019-01-12T07:43:49.037Z,12
2019-01-12T07:44:30.149Z,12
2019-01-12T07:45:11.081Z,8
2019-01-12T07:45:51.458Z,16
2019-01-12T07:46:31.947Z,16
2019-01-12T07:47:12.472Z,20
2019-01-12T07:47:52.912Z,28
2019-01-12T07:48:33.300Z,36
2019-01-12T07:54:38.548Z,56
2019-01-12T07:55:37.123Z,52
2019-01-12T07:56:30.355Z,48
2019-01-12T07:57:23.219Z,44
2019-01-12T07:58:36.871Z,44
2019-01-12T07:59:29.545Z,40
2019-01-12T08:01:18.637Z,36
2019-01-12T08:04:08.199Z,28
2019-01-12T08:07:13.410Z,24
2019-01-12T08:12:07.853Z,36
2019-01-12T08:13:03.786Z,44
2019-01-12T08:14:01.425Z,52
2019-01-12T08:15:07.882Z,56
2019-01-12T08:16:02.998Z,60
2019-01-12T08:17:06.227Z,64
2019-01-12T08:18:17.460Z,80
2019-01-12T08:19:12.220Z,96
2019-01-12T08:20:09.694Z,104
2019-01-12T08:21:24.609Z,132
2019-01-12T08:25:57.974Z,112
2019-01-12T08:26:54.834Z,100
2019-01-12T08:39:27.791Z,124
2019-01-12T08:42:16.054Z,120
2019-01-12T08:42:59.181Z,120
2019-01-12T08:43:39.912Z,128
2019-01-12T08:44:22.727Z,124
2019-01-12T08:45:02.998Z,128
2019-01-12T08:45:56.421Z,132
2019-01-12T08:46:37.060Z,140
2019-01-12T08:47:19.432Z,140
2019-01-12T08:48:03.570Z,144
2019-01-12T08:48:46.092Z,144
2019-01-12T08:49:26.456Z,148
2019-01-12T08:50:09.259Z,144
2019-01-12T08:50:50.302Z,144
2019-01-12T08:51:30.799Z,152
2019-01-12T08:52:13.045Z,140
2019-01-12T08:52:54.178Z,140
2019-01-12T08:53:41.756Z,132
2019-01-12T08:54:29.762Z,128
2019-01-12T08:55:11.532Z,128
2019-01-12T08:55:52.065Z,128
2019-01-12T08:56:38.133Z,136
2019-01-12T08:57:14.189Z,132
2019-01-12T08:57:56.314Z,136
2019-01-12T08:58:36.845Z,136
2019-01-12T08:59:18.770Z,136
2019-01-12T08:59:59.434Z,140
2019-01-12T09:02:49.667Z,136
2019-01-12T09:25:31.122Z,172
2019-01-12T09:32:14.701Z,264
2019-01-12T09:33:07.131Z,264
2019-01-12T09:33:59.205Z,260
2019-01-12T09:34:52.332Z,276
2019-01-12T09:35:46.911Z,292
2019-01-12T09:36:38.963Z,320
2019-01-12T09:37:31.100Z,352
2019-01-12T09:54:53.862Z,348
2019-01-12T09:55:40.627Z,352
2019-01-12T09:56:24.130Z,360
2019-01-12T09:57:04.510Z,364
2019-01-12T09:57:48.483Z,348
2019-01-12T09:58:28.883Z,316
2019-01-12T09:59:09.849Z,300
2019-01-12T09:59:50.189Z,288
2019-01-12T10:00:34.184Z,288
2019-01-12T10:01:14.891Z,280
2019-01-12T10:01:55.454Z,272
2019-01-12T10:02:37.217Z,268
2019-01-12T10:03:19.759Z,264
2019-01-12T10:04:00.091Z,260
2019-01-12T10:04:41.774Z,256
2019-01-12T10:05:22.137Z,248
2019-01-12T10:06:02.610Z,236
2019-01-12T10:06:44.975Z,224
2019-01-12T10:07:28.685Z,212
2019-01-12T10:08:09.255Z,204
2019-01-12T10:08:49.594Z,204
2019-01-12T10:09:34.202Z,204
2019-01-12T10:10:20.627Z,200
2019-01-12T10:11:08.352Z,200
2019-01-12T10:11:53.308Z,200
2019-01-12T10:12:34.102Z,204
2019-01-12T10:13:14.567Z,204
2019-01-12T10:13:55.051Z,208
2019-01-12T10:14:42.263Z,196
2019-01-12T10:15:25.502Z,192
2019-01-12T10:16:06.643Z,192
2019-01-12T10:16:50.332Z,196
2019-01-12T10:21:26.823Z,192
2019-01-12T10:23:45.433Z,176
2019-01-12T10:24:53.710Z,172
2019-01-12T11:10:06.562Z,248
2019-01-12T11:10:48.845Z,256
2019-01-12T11:11:29.499Z,272
2019-01-12T11:12:11.454Z,272
2019-01-12T11:12:51.805Z,276
2019-01-12T11:13:32.189Z,284
2019-01-12T11:14:12.683Z,288
2019-01-12T11:14:54.054Z,296
2019-01-12T11:15:34.509Z,320
2019-01-12T11:16:14.917Z,340
2019-01-12T11:16:56.497Z,356
2019-01-12T11:17:41.038Z,356
2019-01-12T11:18:21.371Z,356
2019-01-12T11:19:02.694Z,376
2019-01-12T11:19:43.101Z,384
2019-01-12T11:20:24.673Z,396
2019-01-12T11:21:05.185Z,420
2019-01-12T11:21:45.900Z,452
2019-01-12T11:22:26.284Z,476
2019-01-12T11:23:06.803Z,464
2019-01-12T11:23:47.201Z,428
2019-01-12T11:24:28.060Z,400
2019-01-12T11:25:08.520Z,392
2019-01-12T11:25:48.988Z,388
2019-01-12T11:26:29.418Z,376
2019-01-12T11:27:12.258Z,348
2019-01-12T11:27:52.280Z,316
2019-01-12T11:28:32.689Z,288
2019-01-12T11:29:13.095Z,280
2019-01-12T11:29:54.489Z,280
2019-01-12T11:30:35.010Z,292
2019-01-12T11:31:19.720Z,320
2019-01-12T11:31:56.677Z,368
2019-01-12T11:32:37.216Z,396
2019-01-12T11:33:21.505Z,436
2019-01-12T11:34:03.794Z,456
2019-01-12T11:34:44.129Z,472
2019-01-12T11:35:26.092Z,488
2019-01-12T11:36:06.464Z,508
2019-01-12T11:36:47.848Z,528
2019-01-12T11:37:28.300Z,568
2019-01-12T11:38:10.484Z,644
2019-01-12T11:38:55.523Z,684
2019-01-12T11:39:37.275Z,628
2019-01-12T11:40:17.529Z,564
2019-01-12T11:40:59.670Z,488
2019-01-12T11:41:41.599Z,408
2019-01-12T11:42:24.267Z,384
2019-01-12T11:43:05.686Z,368
2019-01-12T11:43:47.779Z,368
2019-01-12T11:44:28.741Z,404
2019-01-12T11:45:11.117Z,488
2019-01-12T11:45:53.882Z,472
2019-01-12T11:46:34.486Z,396
2019-01-12T11:47:16.846Z,360
2019-01-12T11:47:59.346Z,364
2019-01-12T11:48:43.494Z,352
2019-01-12T11:49:22.433Z,360
2019-01-12T11:50:04.358Z,400
2019-01-12T11:50:44.799Z,440
2019-01-12T11:51:28.772Z,472
2019-01-12T11:52:09.407Z,468
2019-01-12T11:52:51.757Z,460
2019-01-12T11:53:32.279Z,520
2019-01-12T11:54:13.640Z,556
2019-01-12T11:54:55.776Z,552
2019-01-12T11:55:36.840Z,536
2019-01-12T11:56:19.022Z,484
2019-01-12T11:57:00.399Z,452
2019-01-12T11:57:43.579Z,432
2019-01-12T11:58:24.117Z,400
2019-01-12T11:59:06.350Z,388
2019-01-12T12:04:29.833Z,464
2019-01-12T12:05:12.221Z,452
2019-01-12T12:05:52.739Z,456
2019-01-12T12:06:34.708Z,412
2019-01-12T12:07:16.818Z,428
2019-01-12T12:07:57.597Z,404
2019-01-12T12:08:39.636Z,404
2019-01-12T12:09:20.004Z,348
2019-01-12T12:10:00.684Z,392
2019-01-12T12:10:40.852Z,356
2019-01-12T12:11:21.244Z,432
2019-01-12T12:12:02.594Z,420
2019-01-12T12:12:44.689Z,472
2019-01-12T12:13:25.597Z,452
2019-01-12T12:14:06.015Z,436
2019-01-12T12:14:46.461Z,476
2019-01-12T12:15:28.324Z,476
2019-01-12T12:16:08.962Z,512
2019-01-12T12:16:51.935Z,524
2019-01-12T12:17:32.319Z,504
2019-01-12T12:18:14.625Z,452
2019-01-12T12:18:55.918Z,444
2019-01-12T12:19:36.328Z,420
2019-01-12T12:20:18.484Z,396
2019-01-12T12:21:00.474Z,356
2019-01-12T12:21:41.006Z,348
2019-01-12T12:22:22.225Z,328
2019-01-12T12:23:06.270Z,340
2019-01-12T12:23:48.937Z,332
2019-01-12T12:24:29.706Z,368
2019-01-12T12:25:11.956Z,408
2019-01-12T12:25:53.273Z,444
2019-01-12T12:26:33.885Z,368
2019-01-12T12:27:14.133Z,328
2019-01-12T12:27:54.545Z,340
2019-01-12T12:28:35.004Z,344
2019-01-12T12:29:17.396Z,380
2019-01-12T12:29:57.864Z,376
2019-01-12T12:30:38.194Z,352
2019-01-12T12:31:18.794Z,328
2019-01-12T12:34:19.019Z,276
2019-01-12T12:41:20.671Z,256
2019-01-12T12:42:00.668Z,260
2019-01-12T12:42:41.106Z,284
2019-01-12T12:43:22.668Z,248
2019-01-12T12:44:02.972Z,228
2019-01-12T12:44:45.162Z,220
2019-01-12T12:45:25.584Z,220
2019-01-12T12:46:06.008Z,208
2019-01-12T12:46:50.674Z,240
2019-01-12T12:47:32.702Z,232
2019-01-12T12:48:13.118Z,208
2019-01-12T12:48:54.663Z,188
2019-01-12T12:49:36.954Z,176
2019-01-12T12:50:17.306Z,180
2019-01-12T12:50:57.679Z,184
2019-01-12T12:51:38.095Z,164
2019-01-12T12:52:18.450Z,144
2019-01-12T12:53:02.336Z,132
2019-01-12T12:53:43.406Z,136
2019-01-12T12:54:24.773Z,172
2019-01-12T12:55:05.185Z,188
2019-01-12T12:55:45.579Z,168
2019-01-12T12:56:27.827Z,168
2019-01-12T12:57:09.232Z,176
2019-01-12T12:57:50.363Z,192
2019-01-12T12:58:30.737Z,196
2019-01-12T12:59:12.959Z,212
2019-01-12T12:59:54.396Z,196
2019-01-12T13:00:34.743Z,176
2019-01-12T13:01:16.218Z,156
2019-01-12T13:01:56.586Z,168
2019-01-12T13:02:38.656Z,168
2019-01-12T13:03:19.051Z,172
2019-01-12T13:03:59.507Z,164
2019-01-12T13:04:39.902Z,164
2019-01-12T13:05:20.450Z,152
2019-01-12T13:06:00.958Z,136
2019-01-12T13:06:42.954Z,120
2019-01-12T13:07:23.276Z,128
2019-01-12T13:08:03.672Z,120
2019-01-12T13:08:48.470Z,128
2019-01-12T13:09:26.739Z,144
2019-01-12T13:10:08.193Z,160
2019-01-12T13:10:48.699Z,144
2019-01-12T13:11:29.092Z,112
2019-01-12T13:12:09.566Z,88
2019-01-12T13:12:51.406Z,84
2019-01-12T13:13:32.888Z,92
2019-01-12T13:14:13.252Z,88
2019-01-12T13:14:53.720Z,96
2019-01-12T13:15:35.727Z,120
2019-01-12T13:16:19.008Z,136
2019-01-12T13:16:59.361Z,140
2019-01-12T13:17:39.769Z,140
2019-01-12T13:18:20.119Z,116
2019-01-12T13:19:00.665Z,124
2019-01-12T13:19:41.040Z,116
2019-01-12T13:20:21.791Z,116
2019-01-12T13:21:02.184Z,120
2019-01-12T13:21:42.600Z,108
2019-01-12T13:22:23.960Z,96
2019-01-12T13:23:04.415Z,104
2019-01-12T13:23:45.082Z,100
2019-01-12T13:24:25.430Z,104
2019-01-12T13:25:05.824Z,100
2019-01-12T13:25:47.996Z,100
2019-01-12T13:26:28.273Z,104
2019-01-12T13:27:09.374Z,104
2019-01-12T13:27:49.783Z,116
2019-01-12T13:28:32.028Z,156
2019-01-12T13:29:12.562Z,200
2019-01-12T13:29:52.889Z,188
2019-01-12T13:30:33.471Z,164
2019-01-12T13:31:13.814Z,132
2019-01-12T13:31:55.112Z,124
2019-01-12T13:32:36.981Z,120
2019-01-12T13:33:17.412Z,124
2019-01-12T13:33:57.879Z,120
2019-01-12T13:34:38.213Z,108
2019-01-12T13:35:18.981Z,132
2019-01-12T13:36:01.482Z,128
2019-01-12T13:36:42.002Z,104
2019-01-12T13:37:22.478Z,112
2019-01-12T13:38:02.997Z,116
2019-01-12T13:38:43.377Z,116
2019-01-12T13:39:23.750Z,140
2019-01-12T13:40:04.114Z,188
2019-01-12T13:40:44.691Z,152
2019-01-12T13:41:26.233Z,208
2019-01-12T13:42:06.792Z,180
2019-01-12T13:42:47.273Z,188
2019-01-12T13:43:27.933Z,144
2019-01-12T13:44:09.865Z,140
2019-01-12T13:44:54.481Z,124
2019-01-12T13:45:35.763Z,124
2019-01-12T13:46:18.970Z,108
2019-01-12T13:47:01.903Z,124
2019-01-12T13:47:42.262Z,136
2019-01-12T13:48:22.719Z,144
2019-01-12T13:49:03.090Z,144
2019-01-12T13:49:44.456Z,136
2019-01-12T13:50:27.073Z,120
2019-01-12T13:51:07.932Z,96
2019-01-12T13:51:48.462Z,88
2019-01-12T13:52:28.797Z,84
2019-01-12T13:53:09.392Z,68
2019-01-12T13:53:49.792Z,68
2019-01-12T13:54:32.062Z,80
2019-01-12T13:55:13.658Z,96
2019-01-12T13:55:55.982Z,100
2019-01-12T13:56:36.432Z,108
2019-01-12T13:57:20.653Z,96
2019-01-12T13:58:11.841Z,108
2019-01-12T13:58:52.365Z,100
2019-01-12T13:59:32.781Z,88
2019-01-12T14:00:14.866Z,108
2019-01-12T14:00:56.087Z,96
2019-01-12T14:01:37.568Z,96
2019-01-12T14:02:18.361Z,104
2019-01-12T14:02:58.669Z,100
2019-01-12T14:03:39.895Z,116
2019-01-12T14:04:31.101Z,124
2019-01-12T14:05:11.532Z,128
2019-01-12T14:05:53.720Z,116
2019-01-12T14:06:34.234Z,128
2019-01-12T14:07:15.582Z,120
2019-01-12T14:07:58.079Z,140
2019-01-12T14:08:38.877Z,128
2019-01-12T14:09:20.522Z,148
2019-01-12T14:10:01.909Z,144
2019-01-12T14:10:42.795Z,140
2019-01-12T14:11:24.847Z,132
2019-01-12T14:12:07.035Z,140
2019-01-12T14:12:47.430Z,140
2019-01-12T14:13:29.631Z,116
2019-01-12T14:14:10.035Z,124
2019-01-12T14:14:52.785Z,120
2019-01-12T14:15:34.620Z,92
2019-01-12T14:16:15.915Z,128
2019-01-12T14:16:56.432Z,124
2019-01-12T14:17:36.856Z,112
2019-01-12T14:18:22.526Z,120
2019-01-12T14:18:58.722Z,116
2019-01-12T14:19:40.905Z,124
2019-01-12T14:20:21.565Z,128
2019-01-12T14:21:03.020Z,128
2019-01-12T14:21:45.104Z,96
2019-01-12T14:22:25.623Z,100
2019-01-12T14:23:07.976Z,132
2019-01-12T14:23:48.883Z,128
2019-01-12T14:24:30.682Z,128
2019-01-12T14:25:12.936Z,156
2019-01-12T14:25:57.240Z,124
2019-01-12T14:26:37.655Z,112
2019-01-12T14:27:21.060Z,112
2019-01-12T14:28:03.458Z,104
2019-01-12T14:28:45.740Z,100
2019-01-12T14:29:27.917Z,100
2019-01-12T14:30:09.387Z,88
2019-01-12T14:30:49.064Z,92
2019-01-12T14:31:30.909Z,108
2019-01-12T14:32:10.864Z,96
2019-01-12T14:32:51.095Z,124
2019-01-12T14:33:32.266Z,104
2019-01-12T14:34:14.450Z,96
2019-01-12T14:34:54.892Z,92
2019-01-12T14:35:36.699Z,68
2019-01-12T14:36:16.544Z,84
2019-01-12T14:36:56.951Z,88
2019-01-12T14:37:37.238Z,84
2019-01-12T14:38:17.756Z,88
2019-01-12T14:38:58.467Z,72
2019-01-12T14:39:40.719Z,88
2019-01-12T14:40:24.103Z,80
2019-01-12T14:41:04.496Z,92
2019-01-12T14:41:44.912Z,80
2019-01-12T14:42:25.601Z,88
2019-01-12T14:43:06.052Z,80
2019-01-12T14:43:47.403Z,96
2019-01-12T14:44:27.888Z,76
2019-01-12T14:45:13.927Z,84
2019-01-12T14:45:54.471Z,80
2019-01-12T14:46:34.746Z,88
2019-01-12T14:47:15.151Z,72
2019-01-12T14:47:55.705Z,80
2019-01-12T14:48:36.120Z,88
2019-01-12T14:49:18.448Z,76
2019-01-12T14:49:58.738Z,60
2019-01-12T14:50:39.184Z,64
2019-01-12T14:51:21.650Z,44
2019-01-12T14:52:02.142Z,44
2019-01-12T14:52:42.549Z,52
2019-01-12T14:53:23.095Z,52
2019-01-12T14:54:05.675Z,48
2019-01-12T14:54:48.015Z,44
2019-01-12T14:55:30.233Z,56
2019-01-12T14:56:12.382Z,48
2019-01-12T14:56:56.217Z,48
2019-01-12T14:57:41.818Z,48
2019-01-12T14:58:22.208Z,44
2019-01-12T14:59:02.609Z,48
2019-01-12T14:59:43.192Z,48
2019-01-12T15:00:25.506Z,60
2019-01-12T15:01:05.959Z,56
2019-01-12T15:01:46.419Z,40
2019-01-12T15:02:26.741Z,44
2019-01-12T15:03:07.280Z,52
2019-01-12T15:03:48.910Z,56
2019-01-12T15:04:29.456Z,52
2019-01-12T15:05:10.297Z,56
2019-01-12T15:05:53.432Z,44
2019-01-12T15:06:34.456Z,36
2019-01-12T15:07:15.317Z,36
2019-01-12T15:07:55.714Z,28
2019-01-12T15:08:35.988Z,24
2019-01-12T15:09:16.447Z,24
2019-01-12T15:09:57.012Z,28
2019-01-12T15:10:37.458Z,24
2019-01-12T15:11:22.103Z,28
2019-01-12T15:12:03.381Z,28
2019-01-12T15:12:44.754Z,28
2019-01-12T15:13:25.211Z,28
2019-01-12T15:14:24.573Z,32
2019-01-12T15:15:06.772Z,28
2019-01-12T15:15:52.409Z,28
2019-01-12T15:16:37.696Z,24
2019-01-12T15:17:18.232Z,28
2019-01-12T15:18:01.376Z,28
2019-01-12T15:18:43.416Z,28
2019-01-12T15:19:26.281Z,24
2019-01-12T15:20:06.761Z,28
2019-01-12T15:20:47.194Z,32
2019-01-12T15:21:30.273Z,24
2019-01-12T15:22:10.630Z,24
2019-01-12T15:22:52.441Z,24
2019-01-12T15:23:33.822Z,24
2019-01-12T15:24:14.214Z,24
2019-01-12T15:24:56.517Z,20
2019-01-12T15:25:36.924Z,20
2019-01-12T15:26:18.900Z,16
2019-01-12T15:26:59.272Z,16
2019-01-12T15:27:39.675Z,20
2019-01-12T15:28:21.208Z,20
2019-01-12T15:29:01.596Z,20
2019-01-12T15:29:41.911Z,20
2019-01-12T15:30:23.980Z,16
2019-01-12T15:31:04.421Z,16
2019-01-12T15:31:45.467Z,16
2019-01-12T15:32:25.111Z,12
2019-01-12T15:33:06.504Z,12
2019-01-12T15:33:46.985Z,12
2019-01-12T15:39:56.310Z,16
2019-01-12T15:40:37.255Z,16
2019-01-12T15:41:17.791Z,12
2019-01-12T15:41:58.044Z,12
2019-01-12T15:42:38.483Z,12
2019-01-12T15:43:19.558Z,8
2019-01-12T15:44:00.929Z,8
2019-01-12T15:44:40.461Z,8
2019-01-12T15:45:20.882Z,8
2019-01-12T15:46:01.265Z,8
2019-01-12T15:46:41.703Z,8
2019-01-12T15:47:22.152Z,12
2019-01-12T15:48:03.344Z,12
2019-01-12T15:48:44.072Z,8
2019-01-12T15:49:24.422Z,8
2019-01-12T15:50:05.013Z,8
2019-01-12T15:50:45.428Z,4
2019-01-12T15:51:25.942Z,4
2019-01-12T15:52:06.331Z,4
2019-01-12T15:52:46.690Z,4
2019-01-12T15:53:27.853Z,4
2019-01-12T15:54:08.279Z,4
2019-01-12T15:54:48.966Z,4
2019-01-12T15:55:29.162Z,4
2019-01-12T15:56:10.526Z,4
2019-01-12T15:56:51.211Z,0
2019-01-12T15:57:31.339Z,0
2019-01-12T15:58:16.092Z,4
2019-01-12T15:58:52.133Z,4
2019-01-12T15:59:32.618Z,4
2019-01-12T16:00:13.011Z,4
2019-01-12T16:00:53.472Z,0
2019-01-12T16:01:34.011Z,0
2019-01-12T16:02:14.342Z,0
2019-01-12T16:02:54.944Z,0
2019-01-12T16:03:35.367Z,0
2019-01-12T16:04:15.732Z,0
2019-01-12T16:04:56.136Z,0
2019-01-12T16:05:36.918Z,0
2019-01-12T16:06:17.381Z,0
2019-01-12T16:06:57.913Z,0
2019-01-12T16:07:38.708Z,0
2019-01-12T16:08:18.651Z,0
2019-01-12T16:08:58.999Z,0
2019-01-12T16:09:39.399Z,0
2019-01-12T16:10:19.869Z,0
2019-01-12T16:11:00.256Z,0
2019-01-12T16:11:40.608Z,0
2019-01-12T16:12:22.016Z,0
2019-01-12T16:13:02.311Z,0
2019-01-12T16:13:43.772Z,0
2019-01-12T16:14:24.478Z,0
2019-01-12T16:15:05.090Z,0
2019-01-12T16:15:45.851Z,0
2019-01-12T16:16:26.502Z,0
2019-01-12T16:17:06.882Z,0
2019-01-12T16:17:48.273Z,0
2019-01-12T16:18:46.502Z,0
2019-01-12T16:19:26.034Z,0
2019-01-12T16:20:06.347Z,0
2019-01-12T16:20:47.017Z,0
2019-01-12T16:21:27.316Z,0
2019-01-12T16:22:08.455Z,0
2019-01-12T16:22:49.487Z,0
2019-01-12T16:23:29.875Z,0
2019-01-12T16:24:10.283Z,0
2019-01-12T16:24:50.815Z,0
2019-01-12T16:25:31.246Z,0
2019-01-12T16:26:11.625Z,0
2019-01-12T16:26:52.005Z,0
2019-01-12T16:27:32.375Z,0
2019-01-12T16:28:12.850Z,0
2019-01-12T16:28:54.261Z,0
2019-01-12T16:29:35.131Z,0
2019-01-12T16:30:15.535Z,0
2019-01-12T16:30:55.926Z,0
2019-01-12T16:31:36.426Z,0
2019-01-12T17:09:50.463Z,0
2019-01-12T17:10:44.768Z,0
2019-01-12T17:11:26.033Z,0
2019-01-12T17:12:08.653Z,0
2019-01-12T17:12:50.918Z,0
2019-01-12T17:13:31.337Z,0
2019-01-12T17:14:13.801Z,0
2019-01-12T17:14:54.184Z,0
2019-01-12T17:15:35.091Z,0
2019-01-12T17:16:15.003Z,0
2019-01-12T17:16:57.239Z,0
2019-01-12T17:17:38.272Z,0
2019-01-12T17:18:21.064Z,0
2019-01-12T17:19:01.419Z,0
2019-01-12T17:19:41.826Z,0
2019-01-12T17:20:23.178Z,0
2019-01-12T17:21:03.663Z,0
2019-01-12T17:21:45.835Z,0
2019-01-12T17:22:31.053Z,0
2019-01-12T17:23:11.602Z,0
2019-01-12T17:23:52.946Z,0
2019-01-12T17:24:35.021Z,0
2019-01-12T17:25:15.402Z,0
2019-01-12T17:25:57.831Z,0
2019-01-12T17:26:40.185Z,0
2019-01-12T17:27:20.603Z,0
2019-01-12T17:28:02.917Z,0
2019-01-12T17:28:44.195Z,0
2019-01-12T17:29:28.491Z,0
2019-01-12T17:30:12.382Z,0
2019-01-12T17:30:52.783Z,0
2019-01-12T17:31:33.228Z,0
2019-01-12T17:32:13.609Z,0
2019-01-12T17:32:54.025Z,0
2019-01-12T17:33:34.532Z,0
2019-01-12T17:34:14.917Z,0
2019-01-12T17:34:56.542Z,0
2019-01-12T17:35:37.467Z,0
2019-01-12T17:36:17.315Z,0
2019-01-12T17:36:58.788Z,0
2019-01-12T17:37:38.041Z,0
2019-01-12T17:38:18.440Z,0
2019-01-12T17:38:59.021Z,0
2019-01-12T17:39:40.968Z,0
2019-01-12T17:40:21.847Z,0
2019-01-12T17:41:02.200Z,0
2019-01-12T17:41:42.682Z,0
2019-01-12T17:42:24.587Z,0
2019-01-12T17:43:04.970Z,0
2019-01-12T17:43:45.396Z,0
2019-01-12T17:44:26.034Z,0
2019-01-12T17:45:08.064Z,0
2019-01-12T17:45:48.455Z,0
2019-01-12T17:46:28.848Z,0
2019-01-12T17:47:11.960Z,0
2019-01-12T17:47:52.327Z,0
2019-01-12T17:48:32.937Z,0
2019-01-12T17:49:14.814Z,0
2019-01-12T17:49:57.105Z,0
2019-01-12T17:50:37.566Z,0
2019-01-12T17:51:17.992Z,0
2019-01-12T17:51:58.386Z,0
2019-01-12T17:52:39.099Z,0
2019-01-12T17:53:23.416Z,0
2019-01-12T18:00:41.340Z,0
2019-01-12T18:01:21.786Z,0
2019-01-12T18:02:02.197Z,0
2019-01-12T18:02:45.283Z,0
2019-01-12T18:03:25.689Z,0
2019-01-12T18:04:06.109Z,0
2019-01-12T18:04:46.486Z,0
2019-01-12T18:05:27.489Z,0
2019-01-12T18:06:09.305Z,0
2019-01-12T18:06:49.794Z,0
2019-01-12T18:07:30.305Z,0
2019-01-12T18:08:10.682Z,0
2019-01-12T18:08:51.016Z,0
2019-01-12T18:09:33.574Z,0
2019-01-12T18:10:16.117Z,0
2019-01-12T18:10:58.688Z,0
2019-01-12T18:11:39.316Z,0
2019-01-12T18:12:23.125Z,0
2019-01-12T18:13:04.633Z,0
2019-01-12T18:13:45.869Z,0
2019-01-12T18:14:26.247Z,0
2019-01-12T18:15:06.922Z,0
2019-01-12T18:15:47.164Z,0
2019-01-12T18:16:31.379Z,0
2019-01-12T18:17:11.930Z,0
2019-01-12T18:17:52.292Z,0
2019-01-12T18:18:35.498Z,0
2019-01-12T18:19:18.628Z,0
2019-01-12T18:20:01.320Z,0
2019-01-12T18:20:43.659Z,0
2019-01-12T18:21:24.958Z,0
2019-01-12T18:22:07.281Z,0
2019-01-12T18:22:59.785Z,0
2019-01-12T18:23:44.648Z,0
2019-01-12T18:24:25.178Z,0
2019-01-12T18:25:07.379Z,0
2019-01-12T18:25:51.124Z,0
2019-01-12T18:26:31.574Z,0
2019-01-12T18:27:13.023Z,0
2019-01-12T18:27:53.411Z,0
2019-01-12T18:28:33.778Z,0
2019-01-12T18:29:16.103Z,0
2019-01-12T18:29:58.383Z,0
2019-01-12T18:30:38.647Z,0
2019-01-12T18:31:19.312Z,0
2019-01-12T18:32:01.680Z,0
2019-01-12T18:32:42.232Z,0
2019-01-12T18:33:24.359Z,0
2019-01-12T18:34:08.214Z,0
2019-01-12T18:34:48.603Z,0
2019-01-12T18:35:32.746Z,0
2019-01-12T18:36:14.875Z,0
2019-01-12T18:42:02.819Z,0
2019-01-12T18:42:58.401Z,0
2019-01-12T18:43:54.414Z,0
2019-01-12T18:44:48.790Z,0
2019-01-12T18:45:45.384Z,0
2019-01-12T18:46:48.126Z,0
2019-01-12T18:47:46.389Z,0
2019-01-12T18:48:41.061Z,0
2019-01-12T18:49:38.132Z,0
2019-01-12T18:50:35.737Z,0
2019-01-12T18:51:29.466Z,0
2019-01-12T18:52:28.507Z,0
2019-01-12T18:53:26.634Z,0
2019-01-12T18:54:22.371Z,0
2019-01-12T18:55:15.188Z,0
2019-01-12T18:56:08.233Z,0
2019-01-12T18:57:03.686Z,0
2019-01-12T18:57:59.938Z,0
2019-01-12T19:19:28.162Z,0
2019-01-12T19:20:25.249Z,0
2019-01-12T19:21:18.540Z,0
2019-01-12T19:22:23.792Z,0
2019-01-12T19:23:17.797Z,0
2019-01-12T19:24:14.071Z,0
2019-01-12T19:25:24.758Z,0
2019-01-12T19:26:19.921Z,0
2019-01-12T19:27:27.482Z,0
2019-01-12T19:28:24.953Z,0
2019-01-12T19:30:42.362Z,0
2019-01-12T19:32:53.033Z,0
2019-01-12T19:33:46.170Z,0
2019-01-12T19:34:42.592Z,0
2019-01-12T19:35:39.579Z,0
2019-01-12T19:36:33.016Z,0
2019-01-12T19:37:25.538Z,0
2019-01-12T19:38:27.066Z,0
2019-01-12T19:39:22.491Z,0
2019-01-12T19:40:28.899Z,0
2019-01-12T19:55:10.896Z,0